Time;durP1;ratioP1;P1;durP2;ratioP2;P2;SDS_P1;SDS_P2;PMS_P1;PMS_P2;Temp;Humidity;BMP_temperature;BMP_pressure;BME280_temperature;BME280_humidity;BME280_pressure;Samples;Min_cycle;Max_cycle;Signal;HPM_P1;HPM_P2
2023/03/06 00:00:52;;;;;;;17.60;10.32;;;;;;;;;;5075698;28;20048;-71
2023/03/06 00:03:37;;;;;;;18.02;10.65;;;;;;;;;;5075537;28;20037;-71
2023/03/06 00:06:23;;;;;;;20.35;11.57;;;;;;;;;;5075225;28;20162;-70
2023/03/06 00:09:09;;;;;;;19.80;11.32;;;;;;;;;;5075679;28;20028;-71
2023/03/06 00:11:55;;;;;;;18.13;11.90;;;;;;;;;;5075856;28;20020;-71
2023/03/06 00:14:40;;;;;;;17.15;10.93;;;;;;;;;;5075297;28;20047;-72
2023/03/06 00:17:26;;;;;;;19.52;11.85;;;;;;;;;;5075529;28;20039;-71
2023/03/06 00:20:12;;;;;;;19.92;11.48;;;;;;;;;;5075334;28;20016;-71
2023/03/06 00:22:57;;;;;;;20.45;11.38;;;;;;;;;;5075701;28;20031;-71
2023/03/06 00:25:44;;;;;;;19.80;11.45;;;;;;;;;;5074736;28;20075;-71
2023/03/06 00:28:30;;;;;;;20.70;10.80;;;;;;;;;;5061214;28;20016;-71
2023/03/06 00:31:15;;;;;;;19.45;11.07;;;;;;;;;;5075249;28;20021;-72
2023/03/06 00:34:01;;;;;;;18.42;10.43;;;;;;;;;;5074868;28;20039;-72
2023/03/06 00:36:47;;;;;;;18.60;10.40;;;;;;;;;;5074596;28;20020;-71
2023/03/06 00:39:32;;;;;;;17.58;10.80;;;;;;;;;;5060969;28;20060;-72
2023/03/06 00:42:18;;;;;;;15.88;10.07;;;;;;;;;;5074996;28;20028;-71
2023/03/06 00:45:04;;;;;;;17.23;10.52;;;;;;;;;;5075129;28;20024;-71
2023/03/06 00:47:49;;;;;;;16.58;10.13;;;;;;;;;;5075721;28;20075;-71
2023/03/06 00:50:35;;;;;;;16.38;9.88;;;;;;;;;;5075093;28;20047;-71
2023/03/06 00:53:21;;;;;;;16.02;9.82;;;;;;;;;;5075521;28;20038;-72
2023/03/06 00:56:07;;;;;;;17.85;9.90;;;;;;;;;;5075219;28;20017;-71
2023/03/06 00:58:53;;;;;;;22.13;11.02;;;;;;;;;;5075153;28;20024;-71
2023/03/06 01:01:39;;;;;;;19.70;10.98;;;;;;;;;;5074597;28;20076;-71
2023/03/06 01:04:24;;;;;;;18.55;10.48;;;;;;;;;;5075072;28;20024;-70
2023/03/06 01:07:10;;;;;;;18.33;10.00;;;;;;;;;;5075717;28;20412;-70
2023/03/06 01:09:55;;;;;;;14.68;9.38;;;;;;;;;;5074844;28;20086;-70
2023/03/06 01:12:41;;;;;;;16.77;9.32;;;;;;;;;;5074579;28;20449;-70
2023/03/06 01:15:27;;;;;;;14.77;9.32;;;;;;;;;;5060616;28;20051;-70
2023/03/06 01:18:12;;;;;;;17.08;9.75;;;;;;;;;;5074422;28;20024;-71
2023/03/06 01:20:58;;;;;;;19.17;10.07;;;;;;;;;;5058625;28;20413;-71
2023/03/06 01:23:43;;;;;;;17.58;9.80;;;;;;;;;;5074313;28;20021;-70
2023/03/06 01:26:30;;;;;;;18.80;9.90;;;;;;;;;;5074341;28;20012;-70
2023/03/06 01:29:16;;;;;;;19.05;10.02;;;;;;;;;;5074133;28;20330;-71
2023/03/06 01:32:01;;;;;;;16.08;9.63;;;;;;;;;;5074491;28;20024;-71
2023/03/06 01:34:47;;;;;;;17.00;9.65;;;;;;;;;;5075993;28;20107;-71
2023/03/06 01:37:34;;;;;;;18.13;10.02;;;;;;;;;;5074105;28;20024;-71
2023/03/06 01:40:19;;;;;;;14.38;8.90;;;;;;;;;;5073485;28;20054;-71
2023/03/06 01:43:09;;;;;;;15.30;8.90;;;;;;;;;;5073833;28;20032;-71
2023/03/06 01:46:13;;;;;;;16.20;9.07;;;;;;;;;;5060384;28;20017;-71
2023/03/06 01:49:05;;;;;;;14.95;8.93;;;;;;;;;;5059541;28;20023;-72
2023/03/06 01:51:53;;;;;;;15.82;9.50;;;;;;;;;;5073326;28;20078;-71
2023/03/06 01:54:55;;;;;;;15.18;8.77;;;;;;;;;;5074024;28;20552;-71
2023/03/06 01:57:46;;;;;;;12.65;8.02;;;;;;;;;;5062181;28;20442;-72
2023/03/06 02:00:31;;;;;;;14.98;9.35;;;;;;;;;;5073379;28;20060;-70
2023/03/06 02:03:19;;;;;;;14.48;9.13;;;;;;;;;;5074751;28;20040;-70
2023/03/06 02:06:05;;;;;;;14.48;9.23;;;;;;;;;;5073612;28;20013;-71
2023/03/06 02:08:51;;;;;;;16.42;9.25;;;;;;;;;;5073848;28;20020;-70
2023/03/06 02:11:36;;;;;;;17.60;10.23;;;;;;;;;;5075011;28;20025;-71
2023/03/06 02:14:22;;;;;;;19.83;9.82;;;;;;;;;;5074315;28;20028;-72
2023/03/06 02:17:09;;;;;;;18.23;10.00;;;;;;;;;;5075226;28;20031;-71
2023/03/06 02:19:59;;;;;;;13.63;8.80;;;;;;;;;;5073725;28;20043;-71
2023/03/06 02:22:48;;;;;;;16.65;9.25;;;;;;;;;;5060985;28;20052;-70
2023/03/06 02:25:33;;;;;;;12.68;8.05;;;;;;;;;;5074758;28;20016;-71
2023/03/06 02:28:20;;;;;;;14.40;8.13;;;;;;;;;;5059812;28;20024;-72
2023/03/06 02:31:06;;;;;;;15.75;8.70;;;;;;;;;;5059502;28;20035;-72
2023/03/06 02:34:18;;;;;;;17.77;9.00;;;;;;;;;;5074430;28;20020;-72
2023/03/06 02:37:05;;;;;;;21.30;10.13;;;;;;;;;;5054593;28;20094;-71
2023/03/06 02:39:56;;;;;;;23.48;9.60;;;;;;;;;;5077528;28;20056;-71
2023/03/06 02:42:46;;;;;;;16.92;8.63;;;;;;;;;;5063036;28;20107;-70
2023/03/06 02:45:35;;;;;;;13.82;7.93;;;;;;;;;;5076640;28;20507;-71
2023/03/06 02:48:21;;;;;;;13.50;8.25;;;;;;;;;;5061892;28;20032;-70
2023/03/06 02:51:06;;;;;;;15.95;8.07;;;;;;;;;;5076380;28;20021;-71
2023/03/06 02:53:52;;;;;;;12.60;7.80;;;;;;;;;;5078496;28;20365;-69
2023/03/06 02:56:38;;;;;;;14.35;8.43;;;;;;;;;;5062922;28;20027;-71
2023/03/06 02:59:23;;;;;;;13.82;7.85;;;;;;;;;;5078117;28;20486;-71
2023/03/06 03:02:09;;;;;;;14.20;7.85;;;;;;;;;;5078438;28;20111;-70
2023/03/06 03:04:54;;;;;;;14.02;8.10;;;;;;;;;;5076239;28;20017;-70
2023/03/06 03:07:40;;;;;;;14.18;8.35;;;;;;;;;;5077457;28;20025;-71
2023/03/06 03:10:26;;;;;;;16.60;8.18;;;;;;;;;;5076305;28;20119;-72
2023/03/06 03:13:11;;;;;;;15.05;8.73;;;;;;;;;;5076374;28;20050;-71
2023/03/06 03:16:05;;;;;;;13.25;8.10;;;;;;;;;;5077517;28;20344;-70
2023/03/06 03:18:51;;;;;;;17.35;8.35;;;;;;;;;;5062642;28;20024;-70
2023/03/06 03:21:37;;;;;;;14.05;7.55;;;;;;;;;;5062724;28;20361;-70
2023/03/06 03:24:23;;;;;;;14.10;7.90;;;;;;;;;;5062190;28;20031;-69
2023/03/06 03:27:09;;;;;;;15.43;7.72;;;;;;;;;;5062220;28;20024;-70
2023/03/06 03:29:58;;;;;;;15.95;8.40;;;;;;;;;;5075921;28;20024;-69
2023/03/06 03:32:44;;;;;;;14.52;8.32;;;;;;;;;;5075934;28;20048;-70
2023/03/06 03:35:29;;;;;;;16.83;8.32;;;;;;;;;;5076732;28;20048;-72
2023/03/06 03:38:15;;;;;;;14.25;8.38;;;;;;;;;;5075794;28;20032;-70
2023/03/06 03:41:00;;;;;;;18.45;8.57;;;;;;;;;;5061258;28;20039;-70
2023/03/06 03:43:46;;;;;;;17.27;8.27;;;;;;;;;;5061931;28;20026;-69
2023/03/06 03:46:31;;;;;;;15.15;8.18;;;;;;;;;;5076688;28;20382;-71
2023/03/06 03:49:17;;;;;;;12.93;7.72;;;;;;;;;;5061342;28;20028;-70
2023/03/06 03:52:03;;;;;;;13.18;7.75;;;;;;;;;;5061878;28;20052;-69
2023/03/06 03:54:49;;;;;;;14.63;8.07;;;;;;;;;;5076732;28;20052;-71
2023/03/06 03:57:34;;;;;;;13.68;7.18;;;;;;;;;;5075337;28;20029;-72
2023/03/06 04:00:20;;;;;;;13.80;7.72;;;;;;;;;;5075893;28;20126;-70
2023/03/06 04:03:05;;;;;;;12.77;7.32;;;;;;;;;;5075514;28;20085;-71
2023/03/06 04:05:53;;;;;;;15.40;7.85;;;;;;;;;;5074933;28;20023;-71
2023/03/06 04:08:38;;;;;;;12.27;7.30;;;;;;;;;;5075766;28;20020;-71
2023/03/06 04:11:24;;;;;;;9.57;6.63;;;;;;;;;;5076184;28;20441;-70
2023/03/06 04:14:10;;;;;;;14.52;7.70;;;;;;;;;;5076527;28;20051;-73
2023/03/06 04:16:55;;;;;;;13.05;7.60;;;;;;;;;;5075657;28;20113;-70
2023/03/06 04:19:41;;;;;;;16.40;7.68;;;;;;;;;;5074727;28;20028;-70
2023/03/06 04:22:27;;;;;;;15.18;8.20;;;;;;;;;;5061215;28;20016;-70
2023/03/06 04:25:12;;;;;;;15.88;7.63;;;;;;;;;;5074817;28;20013;-70
2023/03/06 04:27:58;;;;;;;13.88;7.60;;;;;;;;;;5075369;28;20360;-70
2023/03/06 04:30:43;;;;;;;13.98;7.43;;;;;;;;;;5074660;28;20025;-69
2023/03/06 04:33:29;;;;;;;12.55;7.40;;;;;;;;;;5074476;28;20078;-70
2023/03/06 04:36:35;;;;;;;11.98;7.35;;;;;;;;;;5074280;28;20425;-71
2023/03/06 04:39:20;;;;;;;14.02;7.38;;;;;;;;;;5061133;28;20052;-71
2023/03/06 04:42:06;;;;;;;14.73;8.38;;;;;;;;;;5075052;28;20046;-71
2023/03/06 04:44:51;;;;;;;16.77;7.80;;;;;;;;;;5074571;28;20485;-70
2023/03/06 04:47:37;;;;;;;15.75;7.32;;;;;;;;;;5074641;28;20027;-70
2023/03/06 04:50:23;;;;;;;14.23;8.18;;;;;;;;;;5074302;28;20024;-71
2023/03/06 04:53:09;;;;;;;15.75;8.73;;;;;;;;;;5077638;28;20024;-72
2023/03/06 04:55:55;;;;;;;16.02;8.25;;;;;;;;;;5061421;28;20048;-70
2023/03/06 04:58:42;;;;;;;13.10;8.00;;;;;;;;;;5076225;28;20369;-70
2023/03/06 05:01:27;;;;;;;15.57;7.70;;;;;;;;;;5053963;28;20051;-71
2023/03/06 05:04:13;;;;;;;15.88;8.32;;;;;;;;;;5074345;28;20043;-71
2023/03/06 05:06:58;;;;;;;13.45;8.10;;;;;;;;;;5074564;28;20118;-71
2023/03/06 05:09:44;;;;;;;14.00;8.25;;;;;;;;;;5073864;28;20341;-71
2023/03/06 05:12:29;;;;;;;16.58;8.63;;;;;;;;;;5073728;28;20372;-71
2023/03/06 05:15:15;;;;;;;15.68;8.25;;;;;;;;;;5074195;28;20086;-68
2023/03/06 05:18:01;;;;;;;16.15;8.75;;;;;;;;;;5061108;28;20017;-70
2023/03/06 05:20:47;;;;;;;14.38;8.43;;;;;;;;;;5073412;28;20025;-70
2023/03/06 05:23:33;;;;;;;14.27;7.97;;;;;;;;;;5073528;28;20032;-69
2023/03/06 05:26:19;;;;;;;14.27;8.32;;;;;;;;;;5073858;28;20021;-68
2023/03/06 05:29:05;;;;;;;16.10;8.77;;;;;;;;;;5059383;28;20077;-71
2023/03/06 05:31:50;;;;;;;16.33;9.23;;;;;;;;;;5059171;28;20016;-70
2023/03/06 05:34:36;;;;;;;15.20;8.95;;;;;;;;;;5059387;28;20017;-71
2023/03/06 05:37:22;;;;;;;16.40;8.60;;;;;;;;;;5073898;28;20032;-71
2023/03/06 05:40:08;;;;;;;13.85;8.32;;;;;;;;;;5059964;28;20488;-71
2023/03/06 05:42:54;;;;;;;18.38;9.63;;;;;;;;;;5063018;28;20024;-70
2023/03/06 05:45:40;;;;;;;16.30;9.50;;;;;;;;;;5066834;28;20029;-69
2023/03/06 05:48:25;;;;;;;17.83;9.00;;;;;;;;;;5068344;28;20116;-70
2023/03/06 05:51:11;;;;;;;20.10;9.73;;;;;;;;;;5068160;28;20009;-71
2023/03/06 05:53:56;;;;;;;17.70;9.57;;;;;;;;;;5078182;28;20441;-70
2023/03/06 05:56:42;;;;;;;20.52;10.15;;;;;;;;;;5074616;28;20028;-71
2023/03/06 05:59:28;;;;;;;17.45;9.85;;;;;;;;;;5074922;28;20017;-71
2023/03/06 06:02:13;;;;;;;20.88;10.15;;;;;;;;;;5073633;28;20017;-71
2023/03/06 06:05:00;;;;;;;18.25;10.48;;;;;;;;;;5073756;28;20395;-71
2023/03/06 06:07:45;;;;;;;17.48;10.85;;;;;;;;;;5074204;28;20059;-71
2023/03/06 06:10:31;;;;;;;21.20;11.70;;;;;;;;;;5073711;28;20013;-70
2023/03/06 06:13:16;;;;;;;22.25;11.50;;;;;;;;;;5077345;28;20039;-71
2023/03/06 06:16:20;;;;;;;23.08;13.00;;;;;;;;;;5077588;28;20035;-71
2023/03/06 06:19:06;;;;;;;24.23;11.57;;;;;;;;;;5078370;28;20396;-71
2023/03/06 06:21:52;;;;;;;23.17;12.88;;;;;;;;;;5077797;28;20027;-72
2023/03/06 06:24:38;;;;;;;29.60;13.48;;;;;;;;;;5077017;28;20025;-70
2023/03/06 06:27:23;;;;;;;24.27;12.80;;;;;;;;;;5077552;28;20017;-71
2023/03/06 06:30:10;;;;;;;24.52;12.10;;;;;;;;;;5077436;28;20394;-72
2023/03/06 06:32:55;;;;;;;22.67;11.80;;;;;;;;;;5077074;28;20060;-71
2023/03/06 06:35:41;;;;;;;23.08;12.38;;;;;;;;;;5077150;28;20048;-71
2023/03/06 06:38:26;;;;;;;24.90;12.20;;;;;;;;;;5077062;28;20040;-72
2023/03/06 06:41:12;;;;;;;23.80;11.70;;;;;;;;;;5077339;28;20032;-72
2023/03/06 06:43:58;;;;;;;20.52;12.07;;;;;;;;;;5076926;28;20030;-71
2023/03/06 06:46:44;;;;;;;21.60;11.98;;;;;;;;;;5062504;28;20376;-71
2023/03/06 06:49:30;;;;;;;24.20;12.65;;;;;;;;;;5076789;28;20025;-72
2023/03/06 06:52:17;;;;;;;25.17;12.85;;;;;;;;;;5077402;28;20037;-72
2023/03/06 06:55:03;;;;;;;21.73;12.32;;;;;;;;;;5077172;28;20028;-70
2023/03/06 06:57:48;;;;;;;21.60;12.05;;;;;;;;;;5076886;28;20013;-71
2023/03/06 07:00:34;;;;;;;23.98;12.80;;;;;;;;;;5076739;28;20483;-70
2023/03/06 07:03:19;;;;;;;23.23;12.88;;;;;;;;;;5062544;28;20024;-70
2023/03/06 07:06:06;;;;;;;28.02;12.85;;;;;;;;;;5062201;28;20115;-70
2023/03/06 07:08:51;;;;;;;25.45;12.63;;;;;;;;;;5076701;28;20032;-70
2023/03/06 07:11:37;;;;;;;21.42;12.23;;;;;;;;;;5076556;28;20032;-70
2023/03/06 07:14:23;;;;;;;25.35;13.18;;;;;;;;;;5077205;28;20047;-70
2023/03/06 07:17:08;;;;;;;23.80;12.98;;;;;;;;;;5077280;28;20112;-71
2023/03/06 07:19:54;;;;;;;20.15;12.55;;;;;;;;;;5076526;28;20024;-70
2023/03/06 07:22:40;;;;;;;26.83;12.70;;;;;;;;;;5076188;28;20421;-71
2023/03/06 07:25:25;;;;;;;23.63;12.68;;;;;;;;;;5062097;28;20017;-69
2023/03/06 07:28:11;;;;;;;24.30;13.48;;;;;;;;;;5076340;28;20020;-70
2023/03/06 07:30:56;;;;;;;24.88;13.20;;;;;;;;;;5076849;28;20032;-70
2023/03/06 07:33:42;;;;;;;23.10;12.30;;;;;;;;;;5061714;28;20024;-71
2023/03/06 07:36:27;;;;;;;24.85;12.77;;;;;;;;;;5061703;28;20025;-70
2023/03/06 07:39:13;;;;;;;24.83;12.43;;;;;;;;;;5076438;28;20114;-70
2023/03/06 07:41:59;;;;;;;24.00;13.43;;;;;;;;;;5061363;28;20032;-70
2023/03/06 07:44:44;;;;;;;26.77;13.43;;;;;;;;;;5076421;28;20020;-72
2023/03/06 07:47:30;;;;;;;24.40;13.88;;;;;;;;;;5075883;28;20021;-70
2023/03/06 07:50:16;;;;;;;23.83;13.73;;;;;;;;;;5075641;28;20012;-71
2023/03/06 07:53:01;;;;;;;27.25;13.65;;;;;;;;;;5075845;28;20056;-71
2023/03/06 07:55:47;;;;;;;33.95;15.15;;;;;;;;;;5075406;28;20020;-71
2023/03/06 07:58:32;;;;;;;24.33;14.25;;;;;;;;;;5075529;28;20033;-69
2023/03/06 08:01:19;;;;;;;26.80;14.23;;;;;;;;;;5078382;28;20070;-70
2023/03/06 08:04:04;;;;;;;26.73;14.63;;;;;;;;;;5083224;28;20021;-70
2023/03/06 08:06:52;;;;;;;27.23;14.15;;;;;;;;;;5076067;28;20441;-71
2023/03/06 08:09:37;;;;;;;25.63;14.27;;;;;;;;;;5075780;28;20357;-70
2023/03/06 08:12:23;;;;;;;27.38;14.68;;;;;;;;;;5075633;28;20111;-71
2023/03/06 08:15:10;;;;;;;28.80;16.13;;;;;;;;;;5075209;28;20024;-70
2023/03/06 08:17:55;;;;;;;27.52;14.68;;;;;;;;;;5075272;28;20441;-72
2023/03/06 08:20:41;;;;;;;24.17;13.40;;;;;;;;;;5075194;28;20020;-70
2023/03/06 08:23:26;;;;;;;26.63;13.85;;;;;;;;;;5075172;28;20082;-69
2023/03/06 08:26:22;;;;;;;26.60;14.35;;;;;;;;;;5082971;28;20027;-71
2023/03/06 08:29:09;;;;;;;28.20;14.95;;;;;;;;;;5080830;28;20058;-71
2023/03/06 08:31:54;;;;;;;25.08;13.68;;;;;;;;;;5075837;28;20009;-71
2023/03/06 08:34:41;;;;;;;26.13;14.25;;;;;;;;;;5074532;28;20366;-70
2023/03/06 08:37:27;;;;;;;25.05;13.75;;;;;;;;;;5060832;28;20035;-71
2023/03/06 08:40:12;;;;;;;23.95;14.57;;;;;;;;;;5074387;28;20079;-71
2023/03/06 08:42:58;;;;;;;25.88;13.93;;;;;;;;;;5074430;28;20025;-70
2023/03/06 08:45:44;;;;;;;41.22;18.25;;;;;;;;;;5074259;28;20463;-70
2023/03/06 08:48:29;;;;;;;31.80;14.75;;;;;;;;;;5060170;28;20161;-71
2023/03/06 08:51:15;;;;;;;23.95;13.90;;;;;;;;;;5060874;28;20078;-71
2023/03/06 08:54:01;;;;;;;22.83;12.95;;;;;;;;;;5059786;28;20445;-70
2023/03/06 08:56:46;;;;;;;24.13;13.57;;;;;;;;;;5074451;28;20372;-70
2023/03/06 08:59:32;;;;;;;22.77;13.20;;;;;;;;;;5074596;28;20052;-71
2023/03/06 09:02:18;;;;;;;24.05;13.60;;;;;;;;;;5074111;28;20039;-72
2023/03/06 09:05:04;;;;;;;37.10;15.65;;;;;;;;;;5074482;28;20028;-70
2023/03/06 09:08:12;;;;;;;24.80;14.60;;;;;;;;;;5071689;28;20433;-69
2023/03/06 09:10:58;;;;;;;28.52;15.65;;;;;;;;;;5071949;28;20025;-69
2023/03/06 09:13:43;;;;;;;24.42;13.32;;;;;;;;;;5071488;28;20385;-71
2023/03/06 09:16:29;;;;;;;26.55;13.40;;;;;;;;;;5071511;28;20520;-70
2023/03/06 09:19:14;;;;;;;24.35;12.82;;;;;;;;;;5071121;28;20024;-70
2023/03/06 09:22:00;;;;;;;22.02;13.07;;;;;;;;;;5070549;28;20040;-70
2023/03/06 09:24:45;;;;;;;24.88;13.40;;;;;;;;;;5072179;28;20412;-69
2023/03/06 09:27:31;;;;;;;22.27;13.90;;;;;;;;;;5071323;28;20020;-70
2023/03/06 09:30:17;;;;;;;22.50;13.55;;;;;;;;;;5071389;28;20021;-69
2023/03/06 09:33:03;;;;;;;24.45;13.90;;;;;;;;;;5070192;28;20362;-69
2023/03/06 09:35:53;;;;;;;24.38;13.27;;;;;;;;;;5071307;28;20441;-70
2023/03/06 09:38:38;;;;;;;22.50;13.85;;;;;;;;;;5072133;28;20021;-70
2023/03/06 09:41:32;;;;;;;22.23;13.10;;;;;;;;;;5070554;28;20017;-69
2023/03/06 09:44:22;;;;;;;25.30;13.40;;;;;;;;;;5072609;28;20009;-69
2023/03/06 09:47:21;;;;;;;24.15;15.40;;;;;;;;;;5069734;28;20024;-72
2023/03/06 09:50:10;;;;;;;30.60;13.98;;;;;;;;;;5070390;28;20073;-71
2023/03/06 09:52:56;;;;;;;23.10;14.13;;;;;;;;;;5070356;28;20052;-70
2023/03/06 09:55:44;;;;;;;22.88;13.48;;;;;;;;;;5070455;28;20021;-71
2023/03/06 09:58:40;;;;;;;23.33;14.18;;;;;;;;;;5070186;28;20433;-70
2023/03/06 10:01:31;;;;;;;23.50;14.40;;;;;;;;;;5070457;28;20032;-71
2023/03/06 10:04:32;;;;;;;24.17;14.52;;;;;;;;;;5072378;28;20032;-70
2023/03/06 10:07:22;;;;;;;25.83;14.40;;;;;;;;;;5070082;28;20041;-70
2023/03/06 10:10:19;;;;;;;25.50;15.27;;;;;;;;;;5069687;28;20446;-70
2023/03/06 10:13:12;;;;;;;24.63;14.73;;;;;;;;;;5070203;28;20039;-70
2023/03/06 10:16:17;;;;;;;28.38;15.05;;;;;;;;;;5071577;28;20021;-71
2023/03/06 10:19:23;;;;;;;25.88;14.38;;;;;;;;;;5058682;28;20032;-69
2023/03/06 10:22:18;;;;;;;25.52;14.90;;;;;;;;;;5056825;28;20104;-70
2023/03/06 10:25:19;;;;;;;29.55;15.55;;;;;;;;;;5058314;28;20347;-69
2023/03/06 10:28:16;;;;;;;26.75;15.65;;;;;;;;;;5056361;28;20040;-70
2023/03/06 10:31:02;;;;;;;26.85;16.17;;;;;;;;;;5057692;28;20105;-70
2023/03/06 10:33:51;;;;;;;29.23;17.00;;;;;;;;;;5056779;28;20029;-70
2023/03/06 10:36:36;;;;;;;30.77;15.77;;;;;;;;;;5056640;28;20028;-71
2023/03/06 10:39:22;;;;;;;27.83;15.57;;;;;;;;;;5056077;28;20326;-70
2023/03/06 10:42:07;;;;;;;25.27;15.30;;;;;;;;;;5057845;28;20466;-69
2023/03/06 10:45:05;;;;;;;24.27;15.20;;;;;;;;;;5056647;28;20033;-70
2023/03/06 10:48:07;;;;;;;28.15;16.98;;;;;;;;;;5057289;28;20116;-71
2023/03/06 10:51:07;;;;;;;30.63;17.15;;;;;;;;;;5055897;28;20013;-69
2023/03/06 10:53:55;;;;;;;29.10;15.80;;;;;;;;;;5057451;28;20017;-71
2023/03/06 10:56:41;;;;;;;29.02;16.88;;;;;;;;;;5056467;28;20098;-71
2023/03/06 10:59:28;;;;;;;27.40;17.25;;;;;;;;;;5055796;28;20358;-70
2023/03/06 11:02:23;;;;;;;31.38;16.90;;;;;;;;;;5057036;28;20084;-70
2023/03/06 11:05:19;;;;;;;32.70;18.13;;;;;;;;;;5055267;28;20111;-69
2023/03/06 11:08:18;;;;;;;28.95;16.60;;;;;;;;;;5056417;28;20485;-71
2023/03/06 11:11:06;;;;;;;28.90;17.77;;;;;;;;;;5056690;28;20017;-70
2023/03/06 11:13:56;;;;;;;30.45;17.42;;;;;;;;;;5055619;28;20021;-71
2023/03/06 11:16:52;;;;;;;28.77;16.95;;;;;;;;;;5057088;28;20017;-69
2023/03/06 11:19:37;;;;;;;32.10;17.65;;;;;;;;;;5056103;28;20017;-70
2023/03/06 11:22:23;;;;;;;28.15;16.52;;;;;;;;;;5056130;28;20060;-70
2023/03/06 11:25:10;;;;;;;33.17;19.23;;;;;;;;;;5056757;28;20485;-69
2023/03/06 11:28:16;;;;;;;31.55;18.02;;;;;;;;;;5056940;28;20025;-70
2023/03/06 11:31:05;;;;;;;27.75;16.25;;;;;;;;;;5054816;28;20050;-69
2023/03/06 11:34:11;;;;;;;32.58;16.88;;;;;;;;;;5055596;28;20013;-71
2023/03/06 11:37:10;;;;;;;29.27;17.40;;;;;;;;;;5055430;28;20115;-70
2023/03/06 11:40:04;;;;;;;25.05;16.17;;;;;;;;;;5058194;28;20025;-70
2023/03/06 11:42:49;;;;;;;31.38;16.58;;;;;;;;;;5054972;28;20063;-70
2023/03/06 11:45:37;;;;;;;27.15;16.52;;;;;;;;;;5054761;28;20468;-70
2023/03/06 11:48:29;;;;;;;30.35;17.25;;;;;;;;;;5056025;28;20021;-70
2023/03/06 11:51:24;;;;;;;31.92;17.13;;;;;;;;;;5053763;28;20405;-70
2023/03/06 11:54:12;;;;;;;30.35;16.73;;;;;;;;;;5055199;28;20036;-70
2023/03/06 11:57:00;;;;;;;30.95;16.92;;;;;;;;;;5055143;28;20039;-70
2023/03/06 11:59:58;;;;;;;29.63;18.15;;;;;;;;;;5055938;28;20349;-69
2023/03/06 12:03:02;;;;;;;33.63;19.58;;;;;;;;;;5055092;28;20035;-70
2023/03/06 12:05:53;;;;;;;28.60;17.85;;;;;;;;;;5054486;28;20017;-70
2023/03/06 12:09:00;;;;;;;27.77;16.58;;;;;;;;;;5055122;28;20029;-71
2023/03/06 12:11:54;;;;;;;30.83;16.13;;;;;;;;;;5055027;28;20029;-71
2023/03/06 12:14:43;;;;;;;30.95;16.95;;;;;;;;;;5055804;28;20560;-70
2023/03/06 12:17:40;;;;;;;33.03;19.25;;;;;;;;;;5055035;28;20067;-70
2023/03/06 12:20:25;;;;;;;29.10;17.42;;;;;;;;;;5054671;28;20052;-72
2023/03/06 12:23:46;;;;;;;29.65;17.70;;;;;;;;;;5054275;28;20028;-72
2023/03/06 12:26:40;;;;;;;27.85;16.02;;;;;;;;;;5053573;28;20036;-71
2023/03/06 12:29:32;;;;;;;27.35;16.15;;;;;;;;;;5054841;28;20013;-71
2023/03/06 12:32:33;;;;;;;30.00;16.70;;;;;;;;;;5054296;28;20040;-70
2023/03/06 12:35:26;;;;;;;29.00;16.10;;;;;;;;;;5054147;28;20040;-71
2023/03/06 12:38:30;;;;;;;24.50;15.32;;;;;;;;;;5055671;28;20405;-71
2023/03/06 12:41:16;;;;;;;28.52;16.10;;;;;;;;;;5053751;28;20075;-72
2023/03/06 12:44:13;;;;;;;30.75;16.98;;;;;;;;;;5054332;28;20021;-70
2023/03/06 12:47:05;;;;;;;30.58;16.85;;;;;;;;;;5054104;28;20052;-72
2023/03/06 12:49:56;;;;;;;30.48;16.05;;;;;;;;;;5054161;28;20112;-73
2023/03/06 12:52:41;;;;;;;24.23;15.02;;;;;;;;;;5055398;28;20451;-71
2023/03/06 12:55:29;;;;;;;26.65;15.52;;;;;;;;;;5054768;28;20075;-70
2023/03/06 12:58:35;;;;;;;21.77;14.50;;;;;;;;;;5055947;28;20029;-69
2023/03/06 13:01:30;;;;;;;34.30;14.15;;;;;;;;;;5053311;28;20044;-67
2023/03/06 13:04:30;;;;;;;26.25;14.85;;;;;;;;;;5053592;28;20021;-70
2023/03/06 13:07:21;;;;;;;26.52;14.68;;;;;;;;;;5053802;28;20041;-69
2023/03/06 13:10:19;;;;;;;19.05;12.65;;;;;;;;;;5054060;28;20162;-68
2023/03/06 13:13:23;;;;;;;23.75;13.15;;;;;;;;;;5049935;28;20058;-69
2023/03/06 13:16:24;;;;;;;22.52;12.68;;;;;;;;;;5089609;28;20066;-69
2023/03/06 13:19:20;;;;;;;33.17;14.15;;;;;;;;;;5093433;28;20035;-69
2023/03/06 13:22:12;;;;;;;18.33;12.10;;;;;;;;;;5094052;28;20085;-67
2023/03/06 13:25:16;;;;;;;22.05;11.57;;;;;;;;;;5094412;28;20103;-69
2023/03/06 13:28:03;;;;;;;21.10;11.82;;;;;;;;;;5092040;28;20028;-69
2023/03/06 13:30:48;;;;;;;20.25;11.60;;;;;;;;;;5093956;28;20028;-70
2023/03/06 13:33:37;;;;;;;17.55;10.77;;;;;;;;;;5092837;28;20108;-68
2023/03/06 13:36:25;;;;;;;20.65;10.15;;;;;;;;;;5092459;28;20032;-69
2023/03/06 13:39:11;;;;;;;15.30;9.55;;;;;;;;;;5092423;28;20020;-69
2023/03/06 13:41:57;;;;;;;20.13;9.40;;;;;;;;;;5092562;28;20424;-70
2023/03/06 13:44:44;;;;;;;14.77;8.90;;;;;;;;;;5092974;28;20028;-69
2023/03/06 13:47:36;;;;;;;18.55;9.80;;;;;;;;;;5092476;28;20360;-69
2023/03/06 13:50:40;;;;;;;19.10;9.98;;;;;;;;;;5093717;28;20028;-69
2023/03/06 13:53:28;;;;;;;15.15;9.13;;;;;;;;;;5093581;28;20023;-70
2023/03/06 13:56:23;;;;;;;15.20;8.82;;;;;;;;;;5082051;28;20111;-69
2023/03/06 13:59:28;;;;;;;16.98;9.40;;;;;;;;;;5083969;28;20031;-70
2023/03/06 14:02:32;;;;;;;14.75;8.90;;;;;;;;;;5096979;28;20056;-67
2023/03/06 14:05:18;;;;;;;14.38;9.10;;;;;;;;;;5096574;28;20035;-68
2023/03/06 14:08:08;;;;;;;16.88;9.70;;;;;;;;;;5097459;28;20067;-67
2023/03/06 14:11:02;;;;;;;17.42;9.70;;;;;;;;;;5097051;28;20020;-67
2023/03/06 14:13:54;;;;;;;19.40;11.10;;;;;;;;;;5097121;28;20028;-68
2023/03/06 14:16:40;;;;;;;20.75;10.05;;;;;;;;;;5098482;28;20102;-69
2023/03/06 14:19:27;;;;;;;25.35;9.57;;;;;;;;;;5097379;28;20023;-69
2023/03/06 14:22:17;;;;;;;26.23;9.65;;;;;;;;;;5096954;28;20016;-67
2023/03/06 14:25:06;;;;;;;19.13;9.07;;;;;;;;;;5096458;28;20142;-68
2023/03/06 14:27:52;;;;;;;18.77;9.75;;;;;;;;;;5096342;28;20016;-70
2023/03/06 14:30:47;;;;;;;14.80;8.75;;;;;;;;;;5096481;28;20024;-68
2023/03/06 14:33:32;;;;;;;15.00;8.13;;;;;;;;;;5081658;28;20031;-67
2023/03/06 14:36:22;;;;;;;15.85;9.38;;;;;;;;;;5098361;28;20439;-67
2023/03/06 14:39:13;;;;;;;13.93;8.57;;;;;;;;;;5096660;28;20031;-67
2023/03/06 14:42:17;;;;;;;22.25;8.38;;;;;;;;;;5094273;28;20517;-68
2023/03/06 14:45:15;;;;;;;14.57;8.05;;;;;;;;;;5096280;28;20392;-68
2023/03/06 14:48:00;;;;;;;17.13;9.40;;;;;;;;;;5095770;28;20035;-68
2023/03/06 14:50:55;;;;;;;16.45;9.32;;;;;;;;;;5097178;28;20035;-68
2023/03/06 14:53:44;;;;;;;15.13;9.57;;;;;;;;;;5095202;28;20031;-69
2023/03/06 14:56:31;;;;;;;14.10;8.27;;;;;;;;;;5096079;28;20081;-69
2023/03/06 14:59:20;;;;;;;17.15;8.45;;;;;;;;;;5096253;28;20054;-67
2023/03/06 15:02:08;;;;;;;15.02;8.68;;;;;;;;;;5096301;28;20095;-69
2023/03/06 15:05:00;;;;;;;15.38;8.05;;;;;;;;;;5094828;28;20012;-69
2023/03/06 15:07:47;;;;;;;16.25;8.27;;;;;;;;;;5095838;28;20052;-69
2023/03/06 15:10:33;;;;;;;23.08;8.57;;;;;;;;;;5095188;28;20110;-69
2023/03/06 15:13:20;;;;;;;16.88;8.98;;;;;;;;;;5096104;28;20028;-74
2023/03/06 15:16:07;;;;;;;16.88;8.65;;;;;;;;;;5095665;28;20444;-75
2023/03/06 15:18:53;;;;;;;13.32;7.85;;;;;;;;;;5096263;28;20020;-72
2023/03/06 15:21:39;;;;;;;18.05;8.50;;;;;;;;;;5095446;28;20020;-72
2023/03/06 15:24:35;;;;;;;14.25;8.35;;;;;;;;;;5095879;28;20414;-71
2023/03/06 15:27:28;;;;;;;16.55;8.40;;;;;;;;;;5095624;28;20023;-72
2023/03/06 15:30:20;;;;;;;16.30;8.70;;;;;;;;;;5094677;28;20429;-71
2023/03/06 15:33:16;;;;;;;18.20;8.25;;;;;;;;;;5095803;28;20445;-70
2023/03/06 15:36:17;;;;;;;20.65;8.70;;;;;;;;;;5095810;28;20111;-70
2023/03/06 15:39:32;;;;;;;17.27;9.32;;;;;;;;;;5095844;28;20035;-73
2023/03/06 15:42:19;;;;;;;16.83;8.48;;;;;;;;;;5089889;28;20053;-70
2023/03/06 15:45:33;;;;;;;17.20;9.60;;;;;;;;;;5095669;28;20024;-71
2023/03/06 15:48:19;;;;;;;17.98;9.77;;;;;;;;;;5089546;28;20061;-72
2023/03/06 15:51:05;;;;;;;17.30;8.85;;;;;;;;;;5095182;28;20043;-72
2023/03/06 15:53:53;;;;;;;19.42;9.68;;;;;;;;;;5094902;28;20408;-71
2023/03/06 15:56:41;;;;;;;16.17;9.15;;;;;;;;;;5094720;28;20115;-72
2023/03/06 15:59:31;;;;;;;21.45;9.75;;;;;;;;;;5094949;28;20115;-73
2023/03/06 16:02:21;;;;;;;24.25;10.07;;;;;;;;;;5094209;28;20016;-72
2023/03/06 16:05:13;;;;;;;31.67;10.30;;;;;;;;;;5094181;28;20077;-71
2023/03/06 16:07:59;;;;;;;16.42;8.95;;;;;;;;;;5093538;28;20411;-71
2023/03/06 16:10:45;;;;;;;19.48;9.60;;;;;;;;;;5095402;28;20038;-72
2023/03/06 16:13:32;;;;;;;20.25;9.73;;;;;;;;;;5094086;28;20102;-71
2023/03/06 16:16:21;;;;;;;26.38;9.98;;;;;;;;;;5093316;28;20052;-69
2023/03/06 16:19:12;;;;;;;26.65;9.55;;;;;;;;;;5094179;28;20102;-69
2023/03/06 16:21:58;;;;;;;29.52;10.10;;;;;;;;;;5093393;28;20058;-69
2023/03/06 16:24:44;;;;;;;21.08;9.55;;;;;;;;;;5094931;28;20052;-70
2023/03/06 16:27:29;;;;;;;18.83;9.25;;;;;;;;;;5093581;28;20024;-70
2023/03/06 16:30:17;;;;;;;22.85;9.80;;;;;;;;;;5094268;28;20471;-69